• Join FlightAware (Why Join?)
  • Login
  • US Flag 
09:30AM EDT


 

Airport Tracker/Info


-or-


 

Live Flight TrackerFlight Track Log ✈ AWE3397 ✈ 17-04-2013 ✈ KPHL - KMSY

Flight Track Log - Related Links

Times and Time Zones

All times are in EDT time to prevent confusion due to time zone crossing. See the AWE3397 flight status page for this flight to view local times or setup timezone preferences in your user account.

Time Position Orientation Groundspeed Altitude Reporting Facility
EDT Latitude Longitude Course Direction KTS MPH feet Rate Location/Type
08:23AM 39.8592 -75.2814 261° West 149 171 800  Level FAA TRACON SMA TRACON (SMA)
08:23AM 39.8539 -75.3022 252° West 166 191 1,500 1,500 Climbing FAA TRACON SMA TRACON (SMA)
08:24AM 39.8497 -75.3214 254° West 182 209 1,800 1,320 Climbing FAA TRACON SMA TRACON (SMA)
08:24AM 39.8447 -75.3442 254° West 210 242 2,400 2,100 Climbing FAA TRACON SMA TRACON (SMA)
08:24AM 39.8394 -75.3689 254° West 231 266 3,200 2,520 Climbing FAA TRACON SMA TRACON (SMA)
08:25AM 39.8331 -75.4025 256° West 251 289 4,100 3,060 Climbing FAA TRACON SMA TRACON (SMA)
08:25AM 39.8325 -75.4303 269° West 241 277 5,300 3,720 Climbing FAA TRACON SMA TRACON (SMA)
08:25AM 39.8328 -75.4656 271° West 251 289 6,600 3,420 Climbing FAA TRACON SMA TRACON (SMA)
08:26AM 39.8304 -75.8009 258° West  Level FlightAware Approximate
08:26AM 39.8333 -75.4933 272° West 251 289 7,600  Level FAA TRACON SMA TRACON (SMA)
08:26AM 39.8347 -75.5589 272° West 261 300 9,600 2,280 Climbing FAA TRACON SMA TRACON (SMA)
08:27AM 39.8066 -75.9438 258° West  Level FlightAware Approximate
08:27AM 39.8347 -75.5878 270° West 262 302 9,900  Level FAA TRACON SMA TRACON (SMA)
08:27AM 39.8358 -75.6192 273° West 272 313 10,000 120 Climbing FAA TRACON SMA TRACON (SMA)
08:27AM 39.8361 -75.6581 271° West 277 319 10,000  Level FAA TRACON SMA TRACON (SMA)
08:28AM 39.7890 -76.0879 261° West  Level FlightAware Approximate
08:28AM 39.8367 -75.6892 271° West 278 320 10,000  Level FAA TRACON SMA TRACON (SMA)
08:28AM 39.8369 -75.7203 271° West 278 320 10,000 1,020 Level FAA TRACON SMA TRACON (SMA)
08:28AM 39.8389 -75.7581 274° West 279 321 10,700 2,520 Climbing FAA TRACON SMA TRACON (SMA)
08:29AM 39.8461 -75.7897 287° West 293 337 11,700 2,520 Climbing FAA TRACON SMA TRACON (SMA)
08:29AM 39.8511 -75.8208 282° West 291 335 12,400 2,400 Climbing FAA TRACON SMA TRACON (SMA)
08:29AM 39.8572 -75.8597 282° West 291 335 13,300 2,520 Climbing FAA TRACON SMA TRACON (SMA)
08:30AM 39.8628 -75.8928 282° West 293 337 14,100 2,400 Climbing FAA TRACON SMA TRACON (SMA)
08:30AM 39.8683 -75.9253 283° West 297 342 14,900 2,400 Climbing FAA TRACON SMA TRACON (SMA)
08:30AM 39.8750 -75.9647 282° West 300 345 15,700 2,520 Climbing FAA TRACON SMA TRACON (SMA)
08:31AM 39.8706 -76.0014 261° West 307 353 16,600 2,520 Climbing FAA TRACON SMA TRACON (SMA)
08:31AM 39.8603 -76.0328 247° West 310 357 17,400 2,220 Climbing FAA TRACON SMA TRACON (SMA)
08:31AM 39.8458 -76.0717 244° Southwest 312 359 18,100 660 Climbing FAA TRACON SMA TRACON (SMA)
08:32AM 39.8458 -76.0717 38° Northeast 312 359 18,100 1,800 Level FAA TRACON SMA TRACON (SMA)
08:34AM 39.7319 -76.3686 244° Southwest 329 379 23,400 2,160 Climbing Washington Center
08:35AM 39.6894 -76.4814 244° Southwest 344 396 25,200 1,620 Climbing Washington Center
08:36AM 39.6450 -76.5967 243° Southwest 349 402 26,700 1,500 Climbing Washington Center
08:37AM 39.6022 -76.7147 245° Southwest 349 402 28,200 1,440 Climbing Washington Center
08:38AM 39.5572 -76.8297 243° Southwest 361 415 29,600 1,260 Climbing Washington Center
08:39AM 39.5039 -76.9553 241° Southwest 361 415 30,800 1,260 Climbing Washington Center
08:40AM 39.4361 -77.0400 224° Southwest 366 421 32,200 1,260 Climbing Washington Center
08:41AM 39.3475 -77.1347 220° Southwest 371 427 33,400 900 Climbing Washington Center
08:42AM 39.2778 -77.2111 220° Southwest 378 435 34,000 300 Climbing Washington Center
08:43AM 39.1867 -77.3028 218° Southwest 383 441 34,000  Level Washington Center
08:44AM 39.1106 -77.3811 219° Southwest 383 441 34,000  Level Washington Center
08:45AM 39.0194 -77.4753 219° Southwest 388 447 34,000  Level Washington Center
08:46AM 38.9369 -77.5611 219° Southwest 383 441 34,000  Level Washington Center
08:47AM 38.8542 -77.6469 219° Southwest 383 441 34,000  Level Washington Center
08:48AM 38.7800 -77.7219 218° Southwest 383 441 34,000  Level Washington Center
08:49AM 38.6906 -77.8153 219° Southwest 389 448 34,000  Level Washington Center
08:50AM 38.6222 -77.9008 224° Southwest 380 437 34,000  Level Washington Center
08:51AM 38.5533 -78.0181 233° Southwest 380 437 34,000  Level Washington Center
08:52AM 38.4969 -78.1144 233° Southwest 385 443 34,000  Level Washington Center
08:53AM 38.4278 -78.2314 233° Southwest 385 443 34,000  Level Washington Center
08:54AM 38.3714 -78.3275 233° Southwest 379 436 34,000  Level Washington Center
08:55AM 38.3086 -78.4364 234° Southwest 379 436 34,000  Level Washington Center
08:56AM 38.2453 -78.5450 233° Southwest 384 442 34,000  Level Washington Center
08:57AM 38.1822 -78.6533 234° Southwest 384 442 34,000  Level Washington Center
08:58AM 38.1169 -78.7589 232° Southwest 379 436 34,000  Level Washington Center
08:59AM 38.0514 -78.8642 232° Southwest 379 436 34,000  Level Washington Center
09:00AM 37.9814 -78.9825 233° Southwest 379 436 34,000  Level Washington Center
09:01AM 37.9117 -79.0844 229° Southwest 379 436 34,000  Level Washington Center
09:02AM 37.8019 -79.1294 198° South 376 433 34,000  Level Washington Center
09:03AM 37.6867 -79.1475 187° South 396 456 34,000  Level Washington Center
09:04AM 37.5717 -79.1633 186° South 409 471 34,000  Level Washington Center
09:05AM 37.4539 -79.1892 190° South 423 487 34,000  Level Washington Center
09:06AM 37.3450 -79.2022 185° South 436 502 34,000  Level Washington Center
09:07AM 37.2278 -79.2228 188° South 431 496 34,000  Level Washington Center
09:08AM 37.1142 -79.2461 189° South 431 496 34,000  Level Washington Center
09:09AM 37.0064 -79.2931 199° South 426 490 34,000  Level Washington Center
09:10AM 36.9278 -79.4086 230° Southwest 399 459 34,000  Level Washington Center
09:11AM 36.8536 -79.5089 227° Southwest 399 459 34,000  Level Washington Center
09:12AM 36.7792 -79.6114 228° Southwest 394 453 34,000 300 Level Washington Center
09:13AM 36.7047 -79.7139 228° Southwest 399 459 34,600 600 Climbing Washington Center
09:15AM 36.6061 -79.8467 227° Southwest 401 461 35,500 540 Climbing Atlanta Center
09:16AM 36.5303 -79.9464 227° Southwest 401 461 36,000 240 Climbing Atlanta Center
09:17AM 36.4483 -80.0589 228° Southwest 406 467 36,000  Level Atlanta Center
09:18AM 36.3767 -80.1606 229° Southwest 406 467 36,000  Level Atlanta Center
09:19AM 36.3006 -80.2594 226° Southwest 406 467 36,000  Level Atlanta Center
09:20AM 36.2264 -80.3608 228° Southwest 406 467 36,000  Level Atlanta Center
09:21AM 36.1500 -80.4594 226° Southwest 406 467 36,000  Level Atlanta Center
09:22AM 36.0817 -80.5522 228° Southwest 406 467 36,000  Level Atlanta Center
09:23AM 36.0094 -80.6556 229° Southwest 406 467 36,000  Level Atlanta Center
09:24AM 35.9350 -80.7561 228° Southwest 398 458 36,000  Level Atlanta Center
09:25AM 35.8483 -80.8672 226° Southwest 403 464 36,000  Level Atlanta Center
09:26AM 35.7717 -80.9675 227° Southwest 403 464 36,000  Level Atlanta Center
09:27AM 35.6947 -81.0700 227° Southwest 408 470 36,000  Level Atlanta Center
09:28AM 35.6136 -81.1675 224° Southwest 400 460 36,000  Level Atlanta Center
09:29AM 35.5469 -81.2592 228° Southwest 400 460 36,000  Level Atlanta Center
09:30AM 35.4978 -81.3883 245° Southwest 416 479 36,000  Level Atlanta Center
09:31AM 35.4542 -81.5044 245° Southwest 397 457 36,000  Level Atlanta Center
09:32AM 35.4067 -81.6308 245° Southwest 386 444 36,000  Level Atlanta Center
09:33AM 35.3631 -81.7492 246° West 379 436 36,000  Level Atlanta Center
09:34AM 35.3214 -81.8625 246° West 379 436 36,000  Level Atlanta Center
09:35AM 35.2775 -81.9781 245° Southwest 379 436 36,000  Level Atlanta Center
09:36AM 35.2292 -82.0961 243° Southwest 379 436 36,000  Level Atlanta Center
09:37AM 35.1853 -82.2142 246° West 385 443 36,000  Level Atlanta Center
09:38AM 35.1450 -82.3167 244° Southwest 379 436 36,000  Level Atlanta Center
09:39AM 35.1006 -82.4319 245° Southwest 385 443 36,000  Level Atlanta Center
09:40AM 35.0542 -82.5519 245° Southwest 385 443 36,000  Level Atlanta Center
09:41AM 35.0094 -82.6669 245° Southwest 385 443 36,000  Level Atlanta Center
09:42AM 34.9628 -82.7817 244° Southwest 385 443 36,000  Level Atlanta Center
09:43AM 34.9181 -82.8964 245° Southwest 385 443 36,000  Level Atlanta Center
09:44AM 34.8711 -83.0211 245° Southwest 385 443 36,000  Level Atlanta Center
09:45AM 34.8261 -83.1303 243° Southwest 375 432 36,000  Level Atlanta Center
09:46AM 34.7808 -83.2447 244° Southwest 370 426 36,000  Level Atlanta Center
09:47AM 34.7378 -83.3514 244° Southwest 364 419 36,000  Level Atlanta Center
09:48AM 34.6944 -83.4578 244° Southwest 358 412 36,000  Level Atlanta Center
09:49AM 34.6572 -83.5539 245° Southwest 356 410 36,000  Level Atlanta Center
09:50AM 34.6139 -83.6653 245° Southwest 356 410 36,000  Level Atlanta Center
09:51AM 34.5703 -83.7714 243° Southwest 356 410 36,000  Level Atlanta Center
09:52AM 34.5267 -83.8800 244° Southwest 356 410 36,000  Level Atlanta Center
09:53AM 34.4850 -83.9858 244° Southwest 356 410 36,000  Level Atlanta Center
09:54AM 34.4392 -84.0942 243° Southwest 361 415 36,000  Level Atlanta Center
09:55AM 34.3931 -84.2125 245° Southwest 361 415 36,000  Level Atlanta Center
09:56AM 34.3492 -84.3181 243° Southwest 356 410 36,000  Level Atlanta Center
09:57AM 34.3050 -84.4261 244° Southwest 356 410 36,000  Level Atlanta Center
09:58AM 34.2608 -84.5314 243° Southwest 356 410 36,000  Level Atlanta Center
09:59AM 34.2186 -84.6367 244° Southwest 356 410 36,000  Level Atlanta Center
10:00AM 34.1742 -84.7419 243° Southwest 356 410 36,000  Level Atlanta Center
10:01AM 34.1297 -84.8494 243° Southwest 356 410 36,000  Level Atlanta Center
10:02AM 34.0853 -84.9542 243° Southwest 356 410 36,000  Level Atlanta Center
10:03AM 34.0425 -85.0592 244° Southwest 351 404 36,000  Level Atlanta Center
10:04AM 33.9978 -85.1639 243° Southwest 351 404 36,000  Level Atlanta Center
10:05AM 33.9531 -85.2683 243° Southwest 351 404 36,000  Level Atlanta Center
10:06AM 33.9081 -85.3728 243° Southwest 351 404 36,000  Level Atlanta Center
10:07AM 33.8653 -85.4772 244° Southwest 351 404 36,000  Level Atlanta Center
10:08AM 33.8200 -85.5842 243° Southwest 351 404 36,000  Level Atlanta Center
10:09AM 33.7750 -85.6833 241° Southwest 351 404 36,000  Level Atlanta Center
10:10AM 33.7317 -85.7922 244° Southwest 351 404 36,000  Level Atlanta Center
10:11AM 33.6844 -85.8886 240° Southwest 345 397 36,000  Level Atlanta Center
10:12AM 33.6389 -85.9925 242° Southwest 345 397 36,000  Level Atlanta Center
10:13AM 33.5933 -86.0986 243° Southwest 345 397 36,000  Level Atlanta Center
10:14AM 33.5478 -86.1997 242° Southwest 345 397 36,000  Level Atlanta Center
10:15AM 33.5042 -86.3033 243° Southwest 345 397 36,000  Level Atlanta Center
10:16AM 33.4583 -86.4092 243° Southwest 345 397 36,000  Level Atlanta Center
10:17AM 33.4125 -86.5125 242° Southwest 345 397 36,000  Level Atlanta Center
10:18AM 33.3664 -86.6181 242° Southwest 350 403 36,000  Level Atlanta Center
10:19AM 33.3206 -86.7236 243° Southwest 350 403 36,000  Level Atlanta Center
10:20AM 33.2764 -86.8242 242° Southwest 350 403 36,000  Level Atlanta Center
10:21AM 33.2281 -86.9319 242° Southwest 355 409 36,000  Level Atlanta Center
10:22AM 33.1839 -87.0322 242° Southwest 360 414 36,000  Level Atlanta Center
10:23AM 33.1375 -87.1372 242° Southwest 360 414 36,000  Level Atlanta Center
10:24AM 33.0889 -87.2397 241° Southwest 360 414 36,000 240 Level Atlanta Center
10:25AM 33.0422 -87.3469 243° Southwest 360 414 36,500 360 Climbing Atlanta Center
10:29AM 32.8475 -87.7781 242° Southwest 362 417 38,000 300 Climbing Memphis Center
10:30AM 32.7997 -87.8883 243° Southwest 372 428 38,000  Level Memphis Center
10:31AM 32.7519 -88.0008 243° Southwest 372 428 38,000  Level Memphis Center
10:32AM 32.7036 -88.1083 242° Southwest 377 434 38,000  Level Memphis Center
10:33AM 32.6556 -88.2131 241° Southwest 377 434 38,000  Level Memphis Center
10:34AM 32.6031 -88.3228 240° Southwest 377 434 38,000  Level Memphis Center
10:35AM 32.5525 -88.4300 241° Southwest 377 434 38,000  Level Memphis Center
10:36AM 32.5042 -88.5369 242° Southwest 377 434 38,000  Level Memphis Center
10:37AM 32.4556 -88.6439 242° Southwest 377 434 38,000  Level Memphis Center
10:38AM 32.4047 -88.7531 241° Southwest 377 434 38,000  Level Memphis Center
10:39AM 32.3411 -88.8450 231° Southwest 372 428 38,000  Level Memphis Center
10:40AM 32.2567 -88.9250 219° Southwest 372 428 38,000  Level Memphis Center
10:41AM 32.1761 -89.0025 219° Southwest 378 435 38,000  Level Memphis Center
10:42AM 32.0933 -89.0847 220° Southwest 386 444 38,000 -900 Level Memphis Center
10:43AM 32.0128 -89.1594 218° Southwest 386 444 36,300 -1,800 Descending Memphis Center
10:44AM 31.9342 -89.2364 220° Southwest 376 433 34,400 -1,920 Descending Memphis Center
10:45AM 31.8553 -89.3106 219° Southwest 371 427 32,500 -2,040 Descending Memphis Center
10:46AM 31.7733 -89.3894 219° Southwest 371 427 30,300 -2,040 Descending Houston Center
10:47AM 31.6942 -89.4664 220° Southwest 371 427 28,300 -1,260 Descending Houston Center
10:48AM 31.6108 -89.5428 218° Southwest 367 422 27,800 -780 Descending Houston Center
10:49AM 31.5208 -89.5989 208° Southwest 369 425 26,800 -1,020 Descending Houston Center
10:50AM 31.4300 -89.6556 208° Southwest 370 426 25,800 -960 Descending Houston Center
10:51AM 31.3417 -89.7103 208° Southwest 361 415 24,800 -900 Descending Houston Center
10:52AM 31.2553 -89.7642 208° Southwest 356 410 24,000 -420 Descending Houston Center
10:53AM 31.1500 -89.8281 207° Southwest 356 410 24,000 -840 Level Houston Center
10:54AM 31.0633 -89.8817 208° Southwest 355 409 22,300 -1,740 Descending Houston Center
10:55AM 30.9803 -89.9333 208° Southwest 342 394 20,500 -1,920 Descending Houston Center
10:56AM 30.9139 -89.9736 207° Southwest 331 381 19,100 -1,800 Descending Houston Center
10:56AM 30.8981 -89.9839 209° Southwest 337 388 18,700 -1,860 Descending Houston Center
10:56AM 30.8503 -90.0128 207° Southwest 335 386 17,600 -1,800 Descending Houston Center
10:57AM 30.8158 -90.0339 208° Southwest 337 388 16,900 -1,680 Descending Houston Center
10:57AM 30.7744 -90.0594 208° Southwest 335 386 16,100 -2,040 Descending Houston Center
10:58AM 30.7211 -90.0928 208° Southwest 326 375 14,800 -1,860 Descending Houston Center
10:59AM 30.6781 -90.1192 208° Southwest 315 362 13,900 -1,740 Descending Houston Center
10:59AM 30.6453 -90.1417 211° Southwest 316 364 13,000 -1,860 Descending Houston Center
11:00AM 30.6106 -90.1656 211° Southwest 305 351 12,200 -1,800 Descending Houston Center
11:00AM 30.5728 -90.1894 209° Southwest 305 351 11,200 -1,800 Descending Houston Center
11:00AM 30.5431 -90.2092 210° Southwest 299 344 10,600 -1,500 Descending Houston Center
11:01AM 30.5031 -90.2361 210° Southwest 296 341 9,700 -1,320 Descending Houston Center
11:01AM 30.4756 -90.2531 208° Southwest 282 325 9,300 -1,380 Descending Houston Center
11:02AM 30.4389 -90.2781 210° Southwest 275 316 8,300 -1,800 Descending Houston Center
11:03AM 30.3647 -90.3256 209° Southwest 259 298 6,100 -1,980 Descending Houston Center
11:04AM 30.3044 -90.3664 210° Southwest 254 292 4,300 -1,620 Descending Houston Center
11:05AM 30.2808 -90.3814 209° Southwest 252 290 4,000 -420 Descending Houston Center
11:05AM 30.2469 -90.4033 209° Southwest 248 285 3,900 -240 Descending Houston Center
11:06AM 30.2294 -90.4122 204° Southwest 199 229 3,800 -780 Descending Houston Center
11:06AM 30.1972 -90.4286 204° Southwest 220 253 3,100 -1,020 Descending Houston Center
11:07AM 30.1778 -90.4358 198° South 194 223 2,800 -960 Descending Houston Center
11:07AM 30.1472 -90.4542 207° Southwest 205 236 2,100 -540 Descending Houston Center
11:08AM 30.0856 -90.4742 196° South 197 227 1,900 -120 Descending Houston Center
11:09AM 30.0386 -90.4453 152° Southeast 198 228 1,900  Level Houston Center